createdAt,value
2019-06-01T00:01:20.891Z,2.37
2019-06-01T00:04:06.759Z,2.87
2019-06-01T00:06:52.591Z,1.63
2019-06-01T00:09:39.014Z,1.77
2019-06-01T00:12:25.364Z,2.77
2019-06-01T00:15:11.567Z,2.63
2019-06-01T00:17:57.487Z,2.77
2019-06-01T00:20:44.331Z,0.73
2019-06-01T00:23:30.283Z,2.90
2019-06-01T00:26:16.253Z,1.80
2019-06-01T00:29:02.500Z,2.30
2019-06-01T00:31:49.895Z,2.67
2019-06-01T00:34:36.464Z,1.40
2019-06-01T00:37:22.773Z,2.37
2019-06-01T00:40:08.803Z,3.90
2019-06-01T00:42:55.019Z,2.87
2019-06-01T00:45:42.308Z,2.67
2019-06-01T00:48:28.619Z,2.03
2019-06-01T00:51:15.184Z,2.50
2019-06-01T00:54:01.500Z,1.77
2019-06-01T00:56:47.963Z,2.23
2019-06-01T00:59:34.408Z,1.83
2019-06-01T01:02:20.229Z,2.87
2019-06-01T01:05:10.124Z,2.27
2019-06-01T01:07:55.930Z,0.97
2019-06-01T01:10:42.168Z,1.73
2019-06-01T01:13:28.010Z,2.10
2019-06-01T01:16:14.380Z,1.17
2019-06-01T01:19:00.682Z,1.63
2019-06-01T01:21:47.963Z,0.93
2019-06-01T01:24:34.436Z,0.80
2019-06-01T01:27:20.175Z,0.73
2019-06-01T01:30:06.098Z,1.67
2019-06-01T01:32:53.499Z,1.30
2019-06-01T01:35:39.984Z,1.50
2019-06-01T01:38:26.372Z,2.60
2019-06-01T01:41:12.684Z,1.00
2019-06-01T01:43:58.852Z,2.00
2019-06-01T01:46:44.724Z,1.90
2019-06-01T01:49:30.939Z,3.80
2019-06-01T01:52:16.719Z,2.30
2019-06-01T01:55:03.384Z,1.53
2019-06-01T01:57:49.361Z,3.13
2019-06-01T02:00:40.119Z,1.73
2019-06-01T02:03:25.985Z,3.00
2019-06-01T02:06:11.745Z,1.70
2019-06-01T02:08:57.623Z,2.27
2019-06-01T02:11:43.482Z,1.27
2019-06-01T02:14:29.752Z,1.77
2019-06-01T02:17:16.216Z,3.07
2019-06-01T02:20:02.753Z,3.40
2019-06-01T02:22:48.906Z,0.93
2019-06-01T02:25:35.031Z,2.10
2019-06-01T02:28:21.061Z,2.23
2019-06-01T02:31:06.819Z,1.43
2019-06-01T02:33:53.727Z,0.83
2019-06-01T02:36:40.139Z,1.80
2019-06-01T02:39:25.950Z,1.80
2019-06-01T02:42:13.459Z,2.07
2019-06-01T02:45:01.155Z,1.03
2019-06-01T02:47:47.613Z,1.90
2019-06-01T02:50:33.884Z,1.17
2019-06-01T02:53:20.213Z,1.13
2019-06-01T02:56:06.216Z,1.00
2019-06-01T02:58:52.348Z,1.23
2019-06-01T03:01:38.100Z,1.53
2019-06-01T03:04:24.423Z,2.80
2019-06-01T03:07:12.251Z,1.50
2019-06-01T03:10:00.875Z,2.57
2019-06-01T03:12:46.973Z,2.47
2019-06-01T03:15:33.325Z,1.53
2019-06-01T03:18:20.469Z,2.33
2019-06-01T03:21:07.865Z,0.70
2019-06-01T03:23:56.050Z,1.60
2019-06-01T03:26:43.285Z,2.33
2019-06-01T03:29:31.113Z,1.63
2019-06-01T03:32:34.380Z,2.20
2019-06-01T03:35:05.323Z,1.50
2019-06-01T03:37:51.495Z,2.73
2019-06-01T03:40:37.393Z,1.10
2019-06-01T03:43:23.825Z,2.23
2019-06-01T03:46:10.083Z,1.37
2019-06-01T03:48:56.442Z,1.53
2019-06-01T03:51:42.923Z,1.87
2019-06-01T03:54:29.180Z,3.57
2019-06-01T03:57:15.616Z,2.20
2019-06-01T04:00:03.319Z,3.00
2019-06-01T04:02:49.472Z,1.20
2019-06-01T04:05:35.184Z,2.03
2019-06-01T04:08:21.111Z,2.47
2019-06-01T04:11:07.782Z,4.10
2019-06-01T04:13:53.990Z,3.27
2019-06-01T04:16:43.148Z,2.50
2019-06-01T04:19:29.005Z,3.03
2019-06-01T04:22:14.911Z,2.00
2019-06-01T04:25:02.055Z,1.80
2019-06-01T04:27:48.160Z,2.23
2019-06-01T04:30:34.480Z,2.03
2019-06-01T04:33:20.748Z,2.93
2019-06-01T04:36:07.080Z,4.00
2019-06-01T04:38:53.067Z,4.70
2019-06-01T04:41:38.785Z,2.63
2019-06-01T04:44:25.213Z,2.87
2019-06-01T04:47:12.534Z,2.90
2019-06-01T04:49:58.321Z,1.07
2019-06-01T04:52:44.637Z,2.73
2019-06-01T04:55:30.621Z,2.20
2019-06-01T04:58:16.813Z,2.13
2019-06-01T05:01:02.565Z,3.40
2019-06-01T05:03:48.800Z,1.47
2019-06-01T05:06:35.012Z,3.93
2019-06-01T05:09:20.968Z,2.47
2019-06-01T05:12:07.534Z,1.87
2019-06-01T05:14:54.066Z,2.23
2019-06-01T05:17:39.987Z,3.13
2019-06-01T05:20:26.324Z,1.70
2019-06-01T05:23:12.740Z,4.63
2019-06-01T05:25:59.051Z,2.43
2019-06-01T05:28:45.089Z,3.03
2019-06-01T05:31:31.098Z,2.53
2019-06-01T05:34:18.385Z,3.00
2019-06-01T05:37:04.864Z,2.27
2019-06-01T05:39:50.576Z,2.47
2019-06-01T05:42:36.513Z,2.70
2019-06-01T05:45:23.169Z,2.80
2019-06-01T05:48:12.022Z,4.13
2019-06-01T05:50:56.976Z,5.30
2019-06-01T05:53:42.695Z,3.33
2019-06-01T05:56:28.932Z,2.13
2019-06-01T05:59:16.012Z,2.30
2019-06-01T06:02:02.517Z,5.37
2019-06-01T06:04:48.363Z,2.67
2019-06-01T06:07:34.081Z,2.37
2019-06-01T06:10:20.385Z,4.10
2019-06-01T06:13:06.828Z,3.20
2019-06-01T06:15:52.589Z,3.63
2019-06-01T06:18:38.841Z,3.50
2019-06-01T06:21:25.170Z,3.00
2019-06-01T06:24:12.001Z,1.47
2019-06-01T06:26:58.400Z,4.27
2019-06-01T06:29:44.747Z,4.30
2019-06-01T06:32:30.980Z,4.73
2019-06-01T06:35:17.430Z,3.63
2019-06-01T06:38:03.780Z,3.10
2019-06-01T06:40:49.615Z,2.57
2019-06-01T06:43:36.062Z,3.40
2019-06-01T06:46:22.823Z,4.10
2019-06-01T06:49:10.089Z,3.17
2019-06-01T06:51:56.515Z,2.90
2019-06-01T06:54:42.765Z,1.57
2019-06-01T06:57:28.548Z,3.07
2019-06-01T07:00:14.619Z,4.77
2019-06-01T07:03:00.783Z,4.20
2019-06-01T07:05:47.113Z,3.33
2019-06-01T07:08:33.627Z,5.07
2019-06-01T07:11:21.124Z,3.03
2019-06-01T07:14:07.283Z,4.07
2019-06-01T07:16:53.642Z,3.17
2019-06-01T07:19:40.023Z,3.63
2019-06-01T07:22:26.295Z,5.13
2019-06-01T07:25:12.705Z,2.40
2019-06-01T07:27:58.972Z,1.90
2019-06-01T07:30:50.485Z,3.07
2019-06-01T07:33:33.282Z,4.03
2019-06-01T07:36:20.266Z,2.03
2019-06-01T07:39:07.084Z,3.53
2019-06-01T07:41:53.169Z,4.27
2019-06-01T07:44:39.480Z,3.20
2019-06-01T07:47:25.396Z,4.07
2019-06-01T07:50:11.187Z,4.27
2019-06-01T07:52:57.317Z,3.30
2019-06-01T07:55:43.405Z,4.23
2019-06-01T07:58:29.598Z,2.37
2019-06-01T08:01:15.868Z,3.97
2019-06-01T08:04:01.890Z,2.10
2019-06-01T08:06:49.021Z,4.40
2019-06-01T08:09:35.501Z,4.67
2019-06-01T08:12:23.210Z,6.90
2019-06-01T08:15:09.793Z,4.13
2019-06-01T08:17:56.080Z,3.40
2019-06-01T08:20:42.524Z,4.27
2019-06-01T08:23:28.637Z,4.03
2019-06-01T08:26:14.955Z,4.03
2019-06-01T08:29:01.330Z,3.87
2019-06-01T08:31:47.653Z,1.97
2019-06-01T08:34:33.991Z,2.50
2019-06-01T08:37:20.375Z,4.27
2019-06-01T08:40:06.794Z,4.87
2019-06-01T08:42:52.959Z,3.23
2019-06-01T08:45:38.784Z,1.33
2019-06-01T08:48:25.636Z,2.70
2019-06-01T08:51:12.041Z,2.53
2019-06-01T08:53:58.248Z,2.20
2019-06-01T08:56:44.532Z,2.40
2019-06-01T08:59:30.893Z,2.40
2019-06-01T09:02:17.133Z,2.13
2019-06-01T09:05:04.032Z,1.47
2019-06-01T09:07:50.533Z,1.47
2019-06-01T09:10:36.877Z,1.67
2019-06-01T09:13:23.056Z,1.60
2019-06-01T09:16:09.595Z,1.40
2019-06-01T09:18:55.840Z,3.13
2019-06-01T09:21:42.059Z,2.27
2019-06-01T09:24:29.661Z,1.30
2019-06-01T09:27:15.660Z,1.77
2019-06-01T09:30:02.176Z,1.47
2019-06-01T09:32:48.549Z,1.63
2019-06-01T09:35:52.723Z,1.20
2019-06-01T09:38:22.484Z,2.20
2019-06-01T09:41:08.340Z,1.97
2019-06-01T09:43:54.627Z,1.77
2019-06-01T09:46:40.847Z,1.10
2019-06-01T09:49:27.310Z,2.20
2019-06-01T09:52:13.384Z,1.40
2019-06-01T09:55:00.021Z,0.80
2019-06-01T09:57:46.205Z,1.00
2019-06-01T10:00:32.696Z,2.00
2019-06-01T10:03:19.040Z,1.17
2019-06-01T10:06:05.320Z,1.50
2019-06-01T10:08:51.517Z,1.37
2019-06-01T10:11:38.119Z,1.30
2019-06-01T10:14:24.266Z,4.20
2019-06-01T10:17:10.708Z,1.10
2019-06-01T10:19:57.228Z,1.10
2019-06-01T10:22:43.566Z,2.10
2019-06-01T10:25:30.358Z,4.17
2019-06-01T10:28:16.777Z,1.83
2019-06-01T10:31:03.017Z,1.70
2019-06-01T10:33:51.397Z,1.10
2019-06-01T10:36:37.990Z,2.33
2019-06-01T10:39:24.704Z,3.90
2019-06-01T10:42:10.956Z,4.77
2019-06-01T10:44:57.404Z,2.67
2019-06-01T10:47:43.602Z,1.80
2019-06-01T10:50:29.889Z,1.50
2019-06-01T10:53:16.548Z,2.40
2019-06-01T10:56:02.612Z,3.47
2019-06-01T10:58:59.293Z,1.37
2019-06-01T11:01:37.757Z,2.03
2019-06-01T11:04:24.568Z,1.60
2019-06-01T11:07:10.960Z,3.43
2019-06-01T11:09:57.340Z,4.23
2019-06-01T11:12:43.514Z,4.20
2019-06-01T11:15:29.793Z,2.30
2019-06-01T11:18:16.126Z,1.37
2019-06-01T11:21:02.420Z,4.03
2019-06-01T11:23:48.252Z,1.63
2019-06-01T11:26:35.487Z,4.43
2019-06-01T11:29:21.928Z,2.87
2019-06-01T11:32:08.002Z,1.33
2019-06-01T11:34:54.218Z,2.40
2019-06-01T11:37:40.562Z,2.00
2019-06-01T11:40:26.964Z,2.60
2019-06-01T11:43:13.306Z,1.63
2019-06-01T11:45:59.489Z,1.83
2019-06-01T11:48:45.953Z,3.17
2019-06-01T11:51:32.331Z,2.47
2019-06-01T11:54:18.592Z,1.97
2019-06-01T11:57:04.400Z,1.60
2019-06-01T11:59:50.672Z,2.87
2019-06-01T12:02:37.489Z,2.60
2019-06-01T12:05:23.332Z,2.13
2019-06-01T12:08:09.599Z,6.13
2019-06-01T12:10:55.571Z,1.10
2019-06-01T12:13:42.211Z,1.43
2019-06-01T12:16:28.573Z,2.93
2019-06-01T12:19:15.029Z,3.97
2019-06-01T12:22:00.805Z,3.33
2019-06-01T12:24:47.335Z,1.47
2019-06-01T12:27:33.808Z,1.77
2019-06-01T12:30:20.418Z,2.00
2019-06-01T12:33:06.977Z,1.33
2019-06-01T12:35:53.401Z,2.13
2019-06-01T12:38:52.199Z,2.27
2019-06-01T12:41:39.606Z,2.87
2019-06-01T12:44:25.973Z,2.30
2019-06-01T12:47:12.212Z,2.10
2019-06-01T12:49:58.128Z,1.60
2019-06-01T12:52:44.433Z,2.73
2019-06-01T12:55:30.776Z,2.10
2019-06-01T12:58:17.078Z,2.00
2019-06-01T13:01:03.300Z,2.77
2019-06-01T13:03:49.646Z,3.63
2019-06-01T13:06:35.968Z,2.03
2019-06-01T13:09:21.997Z,2.70
2019-06-01T13:12:08.254Z,3.67
2019-06-01T13:14:54.562Z,2.83
2019-06-01T13:17:40.994Z,2.73
2019-06-01T13:20:27.386Z,3.97
2019-06-01T13:23:13.686Z,5.47
2019-06-01T13:25:59.463Z,3.83
2019-06-01T13:28:46.112Z,4.30
2019-06-01T13:31:32.318Z,3.17
2019-06-01T13:34:18.472Z,4.07
2019-06-01T13:37:04.430Z,2.40
2019-06-01T13:39:55.829Z,4.23
2019-06-01T13:42:38.579Z,4.90
2019-06-01T13:45:24.890Z,3.83
2019-06-01T13:48:11.333Z,3.97
2019-06-01T13:50:57.548Z,4.07
2019-06-01T13:53:44.111Z,3.73
2019-06-01T13:56:30.607Z,3.90
2019-06-01T13:59:16.464Z,5.60
2019-06-01T14:02:02.651Z,3.50
2019-06-01T14:04:49.775Z,4.90
2019-06-01T14:07:36.356Z,2.93
2019-06-01T14:10:22.532Z,3.33
2019-06-01T14:13:08.472Z,4.57
2019-06-01T14:15:55.601Z,3.90
2019-06-01T14:18:41.781Z,3.67
2019-06-01T14:21:28.012Z,3.40
2019-06-01T14:24:14.522Z,4.57
2019-06-01T14:27:00.758Z,4.23
2019-06-01T14:29:48.186Z,3.03
2019-06-01T14:32:34.568Z,3.47
2019-06-01T14:35:20.967Z,4.90
2019-06-01T14:38:07.128Z,3.27
2019-06-01T14:40:53.718Z,2.70
2019-06-01T14:43:39.817Z,3.77
2019-06-01T14:46:25.760Z,4.23
2019-06-01T14:49:12.075Z,4.37
2019-06-01T14:51:58.344Z,3.30
2019-06-01T14:54:44.199Z,4.80
2019-06-01T14:57:30.475Z,2.73
2019-06-01T15:00:16.777Z,7.03
2019-06-01T15:03:03.440Z,2.93
2019-06-01T15:05:50.283Z,4.73
2019-06-01T15:08:36.191Z,5.47
2019-06-01T15:11:22.561Z,3.20
2019-06-01T15:14:08.852Z,3.60
2019-06-01T15:16:56.111Z,4.93
2019-06-01T15:19:42.656Z,3.33
2019-06-01T15:22:28.449Z,4.43
2019-06-01T15:25:14.240Z,3.53
2019-06-01T15:28:00.708Z,3.73
2019-06-01T15:30:46.500Z,5.50
2019-06-01T15:33:32.314Z,2.90
2019-06-01T15:36:18.792Z,4.80
2019-06-01T15:39:21.002Z,3.13
2019-06-01T15:41:55.234Z,3.43
2019-06-01T15:44:41.692Z,5.67
2019-06-01T15:47:28.001Z,4.20
2019-06-01T15:50:15.439Z,5.60
2019-06-01T15:53:01.773Z,3.67
2019-06-01T15:55:48.104Z,3.47
2019-06-01T15:58:34.500Z,3.53
2019-06-01T16:01:21.030Z,3.47
2019-06-01T16:04:07.096Z,4.77
2019-06-01T16:06:53.474Z,4.80
2019-06-01T16:09:42.999Z,2.90
2019-06-01T16:12:27.432Z,4.00
2019-06-01T16:15:14.316Z,3.60
2019-06-01T16:18:01.752Z,3.73
2019-06-01T16:20:47.858Z,4.07
2019-06-01T16:23:48.728Z,4.40
2019-06-01T16:26:22.056Z,3.30
2019-06-01T16:29:08.258Z,3.90
2019-06-01T16:31:54.668Z,3.47
2019-06-01T16:34:40.849Z,4.57
2019-06-01T16:37:27.212Z,4.70
2019-06-01T16:40:14.453Z,4.17
2019-06-01T16:43:01.563Z,6.10
2019-06-01T16:45:47.659Z,4.50
2019-06-01T16:48:33.983Z,4.40
2019-06-01T16:51:20.445Z,3.80
2019-06-01T16:54:06.689Z,4.03
2019-06-01T16:56:53.188Z,4.07
2019-06-01T16:59:39.428Z,4.70
2019-06-01T17:02:25.740Z,4.07
2019-06-01T17:05:12.112Z,5.10
2019-06-01T17:07:58.725Z,8.03
2019-06-01T17:10:45.017Z,6.07
2019-06-01T17:13:31.396Z,4.60
2019-06-01T17:16:17.731Z,5.43
2019-06-01T17:19:05.089Z,4.87
2019-06-01T17:21:51.168Z,6.00
2019-06-01T17:24:37.378Z,6.13
2019-06-01T17:27:24.289Z,5.03
2019-06-01T17:30:12.130Z,4.23
2019-06-01T17:32:58.432Z,5.20
2019-06-01T17:35:44.712Z,5.17
2019-06-01T17:38:31.230Z,5.27
2019-06-01T17:41:17.779Z,5.63
2019-06-01T17:44:04.773Z,4.40
2019-06-01T17:46:53.971Z,6.20
2019-06-01T17:49:39.116Z,5.73
2019-06-01T17:52:27.353Z,5.50
2019-06-01T17:55:27.436Z,6.40
2019-06-01T17:58:13.473Z,6.43
2019-06-01T18:00:59.444Z,4.97
2019-06-01T18:03:45.836Z,5.87
2019-06-01T18:06:32.184Z,6.70
2019-06-01T18:09:18.468Z,6.77
2019-06-01T18:12:05.995Z,7.10
2019-06-01T18:14:52.332Z,8.23
2019-06-01T18:17:38.721Z,5.10
2019-06-01T18:20:25.121Z,5.73
2019-06-01T18:23:12.037Z,4.60
2019-06-01T18:26:00.136Z,6.03
2019-06-01T18:28:46.134Z,6.17
2019-06-01T18:31:32.530Z,7.03
2019-06-01T18:34:18.702Z,4.30
2019-06-01T18:37:05.749Z,5.30
2019-06-01T18:39:52.247Z,6.00
2019-06-01T18:42:40.220Z,4.93
2019-06-01T18:45:26.430Z,5.07
2019-06-01T18:48:12.512Z,4.57
2019-06-01T18:50:59.873Z,6.80
2019-06-01T18:53:45.858Z,6.00
2019-06-01T18:56:32.196Z,6.17
2019-06-01T18:59:18.078Z,5.97
2019-06-01T19:02:04.483Z,5.97
2019-06-01T19:04:50.700Z,4.87
2019-06-01T19:07:37.088Z,5.27
2019-06-01T19:10:23.514Z,4.80
2019-06-01T19:13:09.836Z,3.90
2019-06-01T19:15:55.996Z,6.93
2019-06-01T19:18:42.321Z,5.43
2019-06-01T19:21:28.603Z,5.80
2019-06-01T19:24:14.900Z,6.13
2019-06-01T19:27:01.538Z,4.50
2019-06-01T19:29:47.490Z,4.93
2019-06-01T19:32:34.291Z,5.47
2019-06-01T19:35:21.524Z,4.47
2019-06-01T19:38:09.546Z,7.77
2019-06-01T19:40:57.786Z,6.93
2019-06-01T19:43:44.453Z,5.37
2019-06-01T19:46:30.449Z,6.30
2019-06-01T19:49:17.034Z,4.50
2019-06-01T19:52:03.222Z,5.40
2019-06-01T19:54:49.885Z,9.90
2019-06-01T19:57:36.372Z,5.63
2019-06-01T20:00:24.701Z,5.80
2019-06-01T20:03:10.784Z,5.33
2019-06-01T20:05:57.167Z,6.70
2019-06-01T20:08:43.566Z,9.93
2019-06-01T20:11:29.754Z,7.33
2019-06-01T20:14:16.405Z,6.07
2019-06-01T20:17:02.903Z,9.45
2019-06-01T20:19:49.193Z,7.00
2019-06-01T20:22:36.186Z,9.63
2019-06-01T20:25:22.514Z,5.07
2019-06-01T20:28:11.424Z,6.03
2019-06-01T20:30:58.194Z,7.03
2019-06-01T20:33:44.648Z,6.43
2019-06-01T20:36:31.024Z,6.77
2019-06-01T20:39:18.302Z,6.83
2019-06-01T20:42:20.251Z,9.83
2019-06-01T20:44:52.724Z,6.50
2019-06-01T20:47:42.098Z,6.77
2019-06-01T20:50:28.396Z,7.13
2019-06-01T20:53:14.914Z,9.17
2019-06-01T20:56:01.533Z,7.33
2019-06-01T20:58:51.853Z,5.47
2019-06-01T21:01:38.322Z,6.83
2019-06-01T21:04:24.442Z,7.13
2019-06-01T21:07:10.429Z,7.50
2019-06-01T21:09:56.972Z,8.63
2019-06-01T21:12:46.371Z,9.83
2019-06-01T21:15:33.098Z,9.00
2019-06-01T21:18:20.879Z,7.57
2019-06-01T21:21:07.183Z,6.03
2019-06-01T21:23:53.501Z,6.30
2019-06-01T21:26:40.989Z,9.60
2019-06-01T21:29:27.421Z,6.83
2019-06-01T21:32:15.237Z,8.47
2019-06-01T21:35:01.429Z,9.60
2019-06-01T21:37:47.812Z,9.43
2019-06-01T21:40:34.082Z,6.73
2019-06-01T21:43:29.724Z,10.17
2019-06-01T21:46:08.533Z,10.97
2019-06-01T21:48:56.207Z,6.50
2019-06-01T21:51:42.633Z,11.43
2019-06-01T21:54:35.448Z,8.13
2019-06-01T21:57:22.329Z,6.20
2019-06-01T22:00:09.491Z,7.63
2019-06-01T22:02:55.771Z,8.33
2019-06-01T22:05:42.045Z,9.77
2019-06-01T22:08:28.195Z,12.53
2019-06-01T22:11:14.410Z,12.20
2019-06-01T22:14:00.860Z,9.47
2019-06-01T22:16:47.358Z,8.70
2019-06-01T22:19:33.835Z,9.80
2019-06-01T22:22:20.269Z,11.13
2019-06-01T22:25:06.268Z,10.50
2019-06-01T22:27:52.536Z,10.63
2019-06-01T22:30:38.884Z,11.20
2019-06-01T22:33:24.634Z,13.33
2019-06-01T22:36:10.996Z,7.53
2019-06-01T22:38:56.757Z,10.67
2019-06-01T22:41:42.868Z,10.07
2019-06-01T22:44:29.376Z,11.43
2019-06-01T22:47:15.456Z,12.13
2019-06-01T22:50:01.659Z,10.93
2019-06-01T22:52:48.421Z,10.67
2019-06-01T22:55:34.488Z,9.10
2019-06-01T22:58:21.214Z,13.93
2019-06-01T23:01:07.612Z,8.97
2019-06-01T23:03:53.828Z,8.30
2019-06-01T23:06:40.168Z,10.57
2019-06-01T23:09:27.420Z,11.40
2019-06-01T23:12:13.979Z,9.07
2019-06-01T23:15:00.208Z,9.73
2019-06-01T23:17:46.568Z,9.40
2019-06-01T23:20:33.036Z,9.77
2019-06-01T23:23:22.383Z,9.60
2019-06-01T23:26:08.787Z,8.47
2019-06-01T23:28:55.063Z,9.77
2019-06-01T23:31:41.240Z,7.97
2019-06-01T23:34:28.717Z,13.07
2019-06-01T23:37:14.980Z,11.33
2019-06-01T23:40:01.264Z,11.07
2019-06-01T23:42:47.873Z,8.70
2019-06-01T23:45:34.141Z,11.00
2019-06-01T23:48:20.328Z,7.87
2019-06-01T23:51:06.860Z,12.73
2019-06-01T23:53:52.976Z,9.13
2019-06-01T23:56:39.581Z,12.77
2019-06-01T23:59:27.927Z,12.40
